Heidrick, KY (40949)

11:27 EST le 19 décembre 2014 (GMT -0500)
liford's | Change Station
CLOSE
Current Station
Stations météorologiques personnelles
Location: Barbourville, KY
Altitude: 1066 ft
Stations météo à proximité

Alt. 1066 ft 36.84 °N, 83.85 °W | Updated 10 minutes ago

Nuageux
Nuageux
42.8 ° F
Paraît 43 ° F
N
2.7
Vent Variable Vent de SE

Aujourd'hui
Haut(e) -- | Bas -- ° F
--% Risque de précip.
Hier
Haut(e) -- | Bas -- ° F
Precip. -- pouce
7:43 AM 5:21 PM
Lune descendante, 7% visible
Pression 30.27 pouce
Visibilité 9.0 Miles terrestres
Nuages Ciel dégagé
Refroidissement éolien 43 ° F
Point de rosée 26 ° F
Humidité 51%
Précipitations 0.00 pouce
Profondeur de la couche neigeuse Non disponible.
UV 2 sur 12
Pollen .10 sur 12
Qualité de l'air Non disponible.
Flu Activity Non disponible.
METAR KLOZ 191553Z AUTO 36004KT 9SM CLR 02/M04 A3025 RMK AO2 SLP250 T00171039 $

More Conditions Fewer Conditions

Pression 30.27 pouce
Visibilité 9.0 Miles terrestres
Nuages Ciel dégagé
Refroidissement éolien 43 ° F
Point de rosée 26 ° F
Humidité 51%
Précipitations 0.00 pouce
Profondeur de la couche neigeuse Non disponible.
UV 2 sur 12
Pollen .10 sur 12
Qualité de l'air Non disponible.
Flu Activity Non disponible.
METAR KLOZ 191553Z AUTO 36004KT 9SM CLR 02/M04 A3025 RMK AO2 SLP250 T00171039 $

More Conditions Fewer Conditions

10-Day Weather Forecast

Almanac

Astronomie

Dec. 19, 2014 Lever Coucher
Temps réel
Crépuscule civil
Crépuscule nautique
Crépuscule astronomique
Lune
Durée de lumière visible
Longueur du jour
Tomorrow will be .
, % of the Moon is Illuminated

Extrêmes aujourd'hui

State Highs State Lows

Community

WunderPhotos

Upload Photos

1,779,005 Photos téléchargées !

WunderBlogs® & News

Nearby

Qualité de l'air

  Qualité de l'air Indice de la qualité de l'air Polluant
Not available.

Épaisseur de neige

Station Depth Altitude

Activité sismique

Ville Distance Mag. Time & Date
Minimum magnitude displayed is 2.5.

Températures des eaux côtières

Lieu Température

Stations météo à proximité